FAHS/HDS METAR and TAF weather

Enter ICAO airport designator
Station Type Date Time Source
FAHS METAR 2019/06/26 18:00 UTC NOAA

FAHS 261800Z AUTO 21003KT //// // ////// 17/10 Q1027


Station Type Date Time Source
FAHS Decoded METAR 2019/06/26 18:00 UTC NOAA

Hoedspruit, South Africa (FAHS) 24-22S 031-02E 500M
Jun 26, 2019 - 02:00 PM EDT / 2019.06.26 1800 UTC
Wind: from the SSW (210 degrees) at 3 MPH (3 KT):0
Temperature: 62 F (17 C)
Dew Point: 50 F (10 C)
Relative Humidity: 63%
Pressure (altimeter): 30.33 in. Hg (1027 hPa)
ob: FAHS 261800Z AUTO 21003KT //// // ////// 17/10 Q1027
cycle: 18

Station Type Date Time Source
FAHS TAF 2017/05/23 04:01 UTC NOAA

TAF FAHS 230300Z 2304/2315 VRB02KT CAVOK TX29/2312ZTN12/2304Z

Example: see airport list